Time;durP1;ratioP1;P1;durP2;ratioP2;P2;SDS_P1;SDS_P2;PMS_P1;PMS_P2;Temp;Humidity;BMP_temperature;BMP_pressure;BME280_temperature;BME280_humidity;BME280_pressure;Samples;Min_cycle;Max_cycle;Signal;HPM_P1;HPM_P2
2022/04/27 00:00:49;;;;;;;8.70;4.97;;;18.40;99.90;;;;;;5091889;28;20183;-68
2022/04/27 00:03:17;;;;;;;12.73;6.60;;;18.40;99.90;;;;;;5092543;28;20199;-69
2022/04/27 00:05:44;;;;;;;10.13;8.23;;;18.40;99.90;;;;;;5091495;28;20228;-69
2022/04/27 00:08:12;;;;;;;15.97;8.33;;;18.40;99.90;;;;;;5092705;28;20632;-69
2022/04/27 00:10:40;;;;;;;15.20;9.37;;;18.40;99.90;;;;;;5091218;28;20229;-70
2022/04/27 00:13:13;;;;;;;12.20;8.17;;;18.40;99.90;;;;;;5092521;28;20206;-69
2022/04/27 00:15:41;;;;;;;12.60;6.43;;;18.50;99.90;;;;;;5091729;28;20230;-69
2022/04/27 00:18:08;;;;;;;15.17;8.87;;;18.50;99.90;;;;;;5092164;28;20175;-69
2022/04/27 00:20:36;;;;;;;10.17;7.73;;;18.60;99.90;;;;;;5091950;28;20187;-69
2022/04/27 00:23:04;;;;;;;11.30;6.97;;;18.50;99.90;;;;;;5089876;28;20187;-69
2022/04/27 00:25:32;;;;;;;12.27;6.57;;;18.50;99.90;;;;;;5091790;28;20558;-69
2022/04/27 00:28:00;;;;;;;13.33;6.40;;;18.60;99.90;;;;;;5092115;28;20191;-68
2022/04/27 00:30:28;;;;;;;16.53;6.90;;;18.60;99.90;;;;;;5091806;28;20213;-68
2022/04/27 00:32:55;;;;;;;12.80;7.47;;;18.60;99.90;;;;;;5092170;28;20175;-68
2022/04/27 00:35:24;;;;;;;11.27;8.40;;;18.60;99.90;;;;;;5091985;28;20243;-68
2022/04/27 00:37:51;;;;;;;13.53;7.33;;;18.60;99.90;;;;;;5092220;28;20194;-68
2022/04/27 00:40:19;;;;;;;15.23;7.87;;;18.70;99.90;;;;;;5092111;28;20242;-69
2022/04/27 00:42:47;;;;;;;13.17;7.37;;;18.70;99.90;;;;;;5092059;28;20236;-69
2022/04/27 00:45:14;;;;;;;9.60;6.60;;;18.70;99.90;;;;;;5091955;28;20190;-69
2022/04/27 00:47:43;;;;;;;9.80;5.77;;;18.80;99.90;;;;;;5091787;28;20187;-69
2022/04/27 00:50:11;;;;;;;14.27;6.07;;;18.80;99.90;;;;;;5091593;28;20186;-68
2022/04/27 00:52:39;;;;;;;12.20;5.27;;;18.80;99.90;;;;;;5091998;28;20185;-69
2022/04/27 00:55:07;;;;;;;10.53;5.43;;;18.80;99.90;;;;;;5091520;28;20603;-68
2022/04/27 00:57:39;;;;;;;9.30;5.23;;;18.80;99.90;;;;;;5090614;28;20188;-71
2022/04/27 01:00:08;;;;;;;7.60;6.80;;;18.70;99.90;;;;;;5090974;28;20283;-69
2022/04/27 01:02:36;;;;;;;8.23;4.67;;;18.70;99.90;;;;;;5088076;28;20191;-69
2022/04/27 01:05:09;;;;;;;10.60;4.90;;;18.70;99.90;;;;;;5091457;28;20560;-68
2022/04/27 01:07:41;;;;;;;9.37;4.50;;;18.70;99.90;;;;;;5091518;28;20184;-69
2022/04/27 01:10:12;;;;;;;9.30;4.63;;;18.60;99.90;;;;;;5090165;28;20179;-69
2022/04/27 01:12:39;;;;;;;10.63;4.90;;;18.60;99.90;;;;;;5077671;28;20172;-69
2022/04/27 01:15:08;;;;;;;7.90;4.00;;;18.70;99.90;;;;;;5090998;28;20306;-69
2022/04/27 01:17:35;;;;;;;9.20;4.93;;;18.80;99.90;;;;;;5091494;28;20263;-69
2022/04/27 01:20:05;;;;;;;6.30;4.10;;;18.70;99.90;;;;;;5091187;28;20219;-69
2022/04/27 01:22:32;;;;;;;10.13;4.33;;;18.70;99.90;;;;;;5091119;28;20171;-69
2022/04/27 01:25:00;;;;;;;8.07;4.60;;;18.80;99.90;;;;;;5091707;28;20557;-68
2022/04/27 01:27:28;;;;;;;7.67;4.87;;;18.90;99.90;;;;;;5091230;28;20183;-69
2022/04/27 01:29:55;;;;;;;11.70;5.27;;;18.90;99.90;;;;;;5091402;28;20323;-68
2022/04/27 01:32:23;;;;;;;9.07;4.83;;;18.90;99.90;;;;;;5091825;28;20272;-69
2022/04/27 01:34:51;;;;;;;6.73;4.53;;;18.90;99.90;;;;;;5090988;28;20649;-68
2022/04/27 01:40:05;;;;;;;7.17;5.10;;;19.00;99.90;;;;;;5092893;28;20699;-69
2022/04/27 01:42:33;;;;;;;8.43;4.40;;;19.00;99.90;;;;;;5095710;28;20166;-68
2022/04/27 01:45:02;;;;;;;10.03;5.47;;;19.10;99.90;;;;;;5093691;28;20187;-69
2022/04/27 01:47:29;;;;;;;7.57;4.20;;;19.00;99.90;;;;;;5095100;28;20257;-69
2022/04/27 01:49:57;;;;;;;7.87;5.43;;;19.00;99.90;;;;;;5095165;28;20707;-68
2022/04/27 01:55:10;;;;;;;11.30;4.93;;;19.10;99.90;;;;;;5095112;28;20384;-70
2022/04/27 01:57:39;;;;;;;8.53;5.53;;;19.10;99.90;;;;;;5093598;28;20187;-68
2022/04/27 02:00:07;;;;;;;11.00;6.10;;;19.00;99.90;;;;;;5092956;28;20226;-68
2022/04/27 02:02:34;;;;;;;9.33;5.27;;;19.00;99.90;;;;;;5095065;28;20233;-69
2022/04/27 02:05:04;;;;;;;13.07;5.90;;;19.00;99.90;;;;;;5094983;28;20186;-68
2022/04/27 02:07:32;;;;;;;19.53;5.87;;;18.90;99.90;;;;;;5095089;28;20199;-69
2022/04/27 02:09:59;;;;;;;11.33;6.50;;;18.90;99.90;;;;;;5094939;28;20176;-69
2022/04/27 02:12:27;;;;;;;9.63;5.93;;;18.90;99.90;;;;;;5094933;28;20186;-69
2022/04/27 02:14:55;;;;;;;9.13;5.90;;;18.90;99.90;;;;;;5094580;28;20237;-69
2022/04/27 02:17:22;;;;;;;7.57;5.90;;;18.90;99.90;;;;;;5094893;28;20183;-69
2022/04/27 02:19:50;;;;;;;8.57;5.83;;;18.90;99.90;;;;;;5094600;28;20211;-69
2022/04/27 02:22:18;;;;;;;8.47;5.97;;;18.90;99.90;;;;;;5093444;28;20189;-68
2022/04/27 02:24:46;;;;;;;10.17;5.80;;;18.80;99.90;;;;;;5094578;28;20258;-69
2022/04/27 02:27:14;;;;;;;9.30;5.97;;;18.80;99.90;;;;;;5094594;28;20231;-68
2022/04/27 02:29:42;;;;;;;10.70;5.17;;;18.80;99.90;;;;;;5094588;28;20184;-68
2022/04/27 02:32:10;;;;;;;7.90;5.20;;;18.80;99.90;;;;;;5094140;28;20234;-68
2022/04/27 02:34:38;;;;;;;15.77;6.87;;;18.80;99.90;;;;;;5094388;28;20258;-68
2022/04/27 02:37:05;;;;;;;12.47;6.47;;;18.80;99.90;;;;;;5094373;28;20186;-69
2022/04/27 02:39:33;;;;;;;6.77;4.57;;;18.70;99.90;;;;;;5094416;28;20215;-69
2022/04/27 02:42:01;;;;;;;9.83;5.03;;;18.70;99.90;;;;;;5093816;28;20198;-68
2022/04/27 02:44:29;;;;;;;7.40;4.30;;;18.70;99.90;;;;;;5092989;28;20193;-69
2022/04/27 02:46:56;;;;;;;7.80;5.33;;;18.80;99.90;;;;;;5082409;28;20184;-68
2022/04/27 02:52:10;;;;;;;6.90;4.87;;;18.70;99.90;;;;;;5091609;28;20194;-68
2022/04/27 02:54:38;;;;;;;9.87;5.03;;;18.80;99.90;;;;;;5093925;28;20190;-69
2022/04/27 02:57:06;;;;;;;9.13;4.83;;;18.80;99.90;;;;;;5093901;28;20179;-69
2022/04/27 02:59:34;;;;;;;11.13;5.50;;;18.80;99.90;;;;;;5093534;28;20214;-70
2022/04/27 03:02:02;;;;;;;8.23;4.60;;;18.70;99.90;;;;;;5093404;28;20175;-69
2022/04/27 03:04:30;;;;;;;9.00;4.90;;;18.70;99.90;;;;;;5093317;28;20525;-69
2022/04/27 03:06:57;;;;;;;11.40;4.60;;;18.80;99.90;;;;;;5091780;28;20203;-69
2022/04/27 03:09:25;;;;;;;15.07;6.30;;;18.90;99.90;;;;;;5093266;28;20551;-69
2022/04/27 03:11:53;;;;;;;10.07;5.40;;;18.90;99.90;;;;;;5093061;28;20532;-69
2022/04/27 03:14:21;;;;;;;11.13;5.73;;;18.90;99.90;;;;;;5090007;28;20182;-69
2022/04/27 03:16:50;;;;;;;8.83;5.27;;;19.00;99.90;;;;;;5093166;28;20202;-69
2022/04/27 03:19:17;;;;;;;11.97;5.07;;;19.00;99.90;;;;;;5092996;28;20214;-68
2022/04/27 03:21:45;;;;;;;9.30;5.23;;;19.10;99.90;;;;;;5091760;28;20191;-68
2022/04/27 03:24:14;;;;;;;7.73;5.27;;;19.00;99.90;;;;;;5092223;28;20550;-69
2022/04/27 03:26:41;;;;;;;8.43;5.10;;;19.00;99.90;;;;;;5091793;28;20693;-69
2022/04/27 03:29:09;;;;;;;11.03;5.03;;;19.00;99.90;;;;;;5091197;28;20179;-69
2022/04/27 03:31:37;;;;;;;9.00;4.83;;;19.00;99.90;;;;;;5090579;28;20187;-68
2022/04/27 03:34:04;;;;;;;5.40;4.20;;;19.00;99.90;;;;;;5093105;28;20182;-69
2022/04/27 03:36:32;;;;;;;6.10;4.20;;;19.00;99.90;;;;;;5093277;28;20653;-69
2022/04/27 03:39:00;;;;;;;6.00;3.60;;;19.00;99.90;;;;;;5092487;28;20640;-69
2022/04/27 03:41:29;;;;;;;6.13;3.60;;;19.00;99.90;;;;;;5092812;28;20183;-69
2022/04/27 03:43:56;;;;;;;6.80;3.60;;;19.00;99.90;;;;;;5092503;28;20229;-68
2022/04/27 03:46:24;;;;;;;5.60;3.87;;;18.90;99.90;;;;;;5092585;28;20614;-68
2022/04/27 03:48:52;;;;;;;9.17;3.87;;;19.00;99.90;;;;;;5092520;28;20278;-69
2022/04/27 03:51:20;;;;;;;12.60;4.50;;;19.00;99.90;;;;;;5104533;28;20147;-68
2022/04/27 03:53:47;;;;;;;10.30;4.37;;;19.10;99.90;;;;;;5097482;28;20266;-68
2022/04/27 03:56:15;;;;;;;8.03;4.70;;;19.10;99.90;;;;;;5110319;28;20182;-68
2022/04/27 03:58:43;;;;;;;12.10;5.83;;;19.10;99.90;;;;;;5098154;28;20246;-68
2022/04/27 04:01:11;;;;;;;8.87;4.63;;;19.10;99.90;;;;;;5111743;28;20179;-68
2022/04/27 04:03:38;;;;;;;8.73;4.80;;;19.00;99.90;;;;;;5110503;28;20187;-68
2022/04/27 04:06:06;;;;;;;5.13;4.30;;;19.10;99.90;;;;;;5092873;28;20751;-69
2022/04/27 04:08:34;;;;;;;10.53;4.67;;;19.10;99.90;;;;;;5092607;28;20257;-68
2022/04/27 04:11:01;;;;;;;8.03;4.27;;;19.10;99.90;;;;;;5092822;28;20173;-69
2022/04/27 04:13:29;;;;;;;9.63;4.73;;;19.10;99.90;;;;;;5091674;28;20241;-69
2022/04/27 04:15:57;;;;;;;6.10;3.60;;;19.10;99.90;;;;;;5092048;28;20304;-69
2022/04/27 04:18:25;;;;;;;7.37;4.17;;;19.10;99.90;;;;;;5091019;28;20163;-69
2022/04/27 04:20:52;;;;;;;7.97;4.90;;;19.10;99.90;;;;;;5093068;28;20692;-69
2022/04/27 04:23:20;;;;;;;7.80;4.30;;;19.10;99.90;;;;;;5092514;28;20659;-69
2022/04/27 04:28:34;;;;;;;8.90;4.17;;;19.00;99.90;;;;;;5092251;28;20557;-69
2022/04/27 04:31:06;;;;;;;9.53;3.63;;;19.00;99.90;;;;;;5092294;28;20652;-68
2022/04/27 04:33:33;;;;;;;7.73;3.63;;;19.00;99.90;;;;;;5090947;28;20194;-69
2022/04/27 04:36:01;;;;;;;9.03;3.93;;;19.00;99.90;;;;;;5092371;28;20179;-68
2022/04/27 04:38:29;;;;;;;8.63;4.43;;;18.90;99.90;;;;;;5092118;28;20309;-69
2022/04/27 04:40:56;;;;;;;7.67;4.00;;;18.90;99.90;;;;;;5092296;28;20181;-69
2022/04/27 04:43:24;;;;;;;5.93;3.90;;;18.90;99.90;;;;;;5092457;28;20183;-69
2022/04/27 04:45:52;;;;;;;7.90;4.37;;;18.90;99.90;;;;;;5091506;28;20194;-69
2022/04/27 04:48:22;;;;;;;6.67;4.03;;;18.90;99.90;;;;;;5092079;28;20183;-69
2022/04/27 04:50:50;;;;;;;6.50;3.87;;;18.90;99.90;;;;;;5090787;28;20567;-69
2022/04/27 04:53:20;;;;;;;8.77;4.03;;;18.90;99.90;;;;;;5091916;28;20192;-68
2022/04/27 04:55:48;;;;;;;8.07;4.43;;;18.90;99.90;;;;;;5092353;28;20175;-69
2022/04/27 04:58:15;;;;;;;11.90;4.67;;;18.90;99.90;;;;;;5092101;28;20338;-69
2022/04/27 05:00:45;;;;;;;12.97;5.20;;;18.90;99.90;;;;;;5091798;28;20187;-68
2022/04/27 05:03:13;;;;;;;5.70;4.10;;;19.00;99.90;;;;;;5091942;28;20198;-68
2022/04/27 05:05:41;;;;;;;8.27;4.53;;;18.90;99.90;;;;;;5091777;28;20181;-69
2022/04/27 05:08:09;;;;;;;8.77;4.70;;;18.90;99.90;;;;;;5091744;28;20211;-69
2022/04/27 05:10:37;;;;;;;7.17;4.47;;;18.80;99.90;;;;;;5091630;28;20183;-68
2022/04/27 05:13:05;;;;;;;9.13;4.90;;;18.80;99.90;;;;;;5091468;28;20175;-69
2022/04/27 05:15:33;;;;;;;8.80;4.90;;;18.80;99.90;;;;;;5094160;28;20230;-69
2022/04/27 05:18:01;;;;;;;8.40;5.30;;;18.80;99.90;;;;;;5095465;28;20183;-69
2022/04/27 05:20:28;;;;;;;10.50;5.43;;;18.80;99.90;;;;;;5095498;28;20691;-68
2022/04/27 05:22:56;;;;;;;9.77;4.67;;;18.80;99.90;;;;;;5095335;28;20372;-68
2022/04/27 05:25:24;;;;;;;7.30;5.20;;;18.80;99.90;;;;;;5095698;28;20183;-68
2022/04/27 05:27:51;;;;;;;7.37;5.53;;;18.80;99.90;;;;;;5095787;28;20265;-68
2022/04/27 05:33:05;;;;;;;9.43;5.13;;;18.90;99.90;;;;;;5096129;28;20566;-69
2022/04/27 05:35:40;;;;;;;9.97;6.37;;;18.90;99.90;;;;;;5095567;28;20167;-69
2022/04/27 05:38:08;;;;;;;8.77;5.40;;;18.90;99.90;;;;;;5095903;28;20193;-68
2022/04/27 05:40:39;;;;;;;9.27;5.07;;;19.00;99.90;;;;;;5094702;28;20218;-69
2022/04/27 05:43:09;;;;;;;12.43;5.63;;;19.00;99.90;;;;;;5095400;28;20175;-68
2022/04/27 05:45:37;;;;;;;9.87;5.37;;;19.10;99.90;;;;;;5095191;28;20523;-68
2022/04/27 05:48:05;;;;;;;15.40;6.20;;;19.10;99.90;;;;;;5095947;28;20168;-68
2022/04/27 05:50:35;;;;;;;7.77;5.53;;;19.10;99.90;;;;;;5095911;28;20538;-69
2022/04/27 05:53:04;;;;;;;8.20;5.00;;;19.10;99.90;;;;;;5096414;28;20173;-69
2022/04/27 05:55:32;;;;;;;10.17;5.90;;;19.10;99.90;;;;;;5096627;28;20260;-69
2022/04/27 05:58:00;;;;;;;8.33;5.03;;;19.10;99.90;;;;;;5095775;28;20172;-69
2022/04/27 06:00:27;;;;;;;10.77;4.97;;;19.10;99.90;;;;;;5095681;28;20631;-69
2022/04/27 06:02:55;;;;;;;8.00;5.00;;;19.10;99.90;;;;;;5083669;28;20263;-69
2022/04/27 06:05:23;;;;;;;7.57;4.50;;;19.10;99.90;;;;;;5095535;28;20195;-70
2022/04/27 06:07:50;;;;;;;8.97;5.23;;;19.10;99.90;;;;;;5096070;28;20190;-69
2022/04/27 06:10:18;;;;;;;10.37;5.17;;;19.00;99.90;;;;;;5096288;28;20182;-70
2022/04/27 06:12:47;;;;;;;7.23;4.43;;;19.00;99.90;;;;;;5096098;28;20171;-69
2022/04/27 06:15:16;;;;;;;5.43;4.17;;;19.00;99.90;;;;;;5095782;28;20245;-69
2022/04/27 06:17:43;;;;;;;9.90;4.63;;;19.00;99.90;;;;;;5096267;28;20641;-70
2022/04/27 06:20:12;;;;;;;9.00;4.87;;;19.00;99.90;;;;;;5096066;28;20219;-70
2022/04/27 06:22:40;;;;;;;6.10;4.03;;;19.00;99.90;;;;;;5095981;28;20199;-69
2022/04/27 06:25:08;;;;;;;8.77;5.17;;;19.00;99.90;;;;;;5095951;28;20183;-70
2022/04/27 06:27:36;;;;;;;9.17;4.77;;;19.00;99.90;;;;;;5095946;28;20171;-69
2022/04/27 06:30:05;;;;;;;11.43;5.33;;;18.90;99.90;;;;;;5095921;28;20171;-69
2022/04/27 06:32:34;;;;;;;8.40;5.13;;;18.90;99.90;;;;;;5095668;28;20172;-69
2022/04/27 06:35:02;;;;;;;9.47;5.10;;;18.90;99.90;;;;;;5095883;28;20176;-69
2022/04/27 06:37:33;;;;;;;9.50;5.40;;;18.90;99.90;;;;;;5095833;28;20175;-69
2022/04/27 06:40:01;;;;;;;11.33;5.00;;;18.90;99.90;;;;;;5094518;28;20233;-69
2022/04/27 06:42:30;;;;;;;12.80;5.27;;;18.90;99.90;;;;;;5094296;28;20241;-70
2022/04/27 06:45:01;;;;;;;8.53;5.13;;;18.80;99.90;;;;;;5094304;28;20262;-70
2022/04/27 06:47:31;;;;;;;11.03;5.63;;;18.90;99.90;;;;;;5095336;28;20181;-70
2022/04/27 06:49:59;;;;;;;10.00;5.60;;;18.90;99.90;;;;;;5095390;28;20198;-69
2022/04/27 06:52:27;;;;;;;11.60;6.10;;;18.90;99.90;;;;;;5094288;28;20183;-70
2022/04/27 06:54:55;;;;;;;12.37;7.07;;;18.90;99.90;;;;;;5095525;28;20236;-69
2022/04/27 06:57:22;;;;;;;10.10;5.80;;;18.80;99.90;;;;;;5095440;28;20254;-70
2022/04/27 06:59:50;;;;;;;14.37;6.30;;;18.80;99.90;;;;;;5095430;28;20214;-70
2022/04/27 07:02:18;;;;;;;9.20;6.03;;;18.80;99.90;;;;;;5095334;28;20182;-70
2022/04/27 07:04:51;;;;;;;8.40;5.97;;;18.80;99.90;;;;;;5095284;28;20561;-70
2022/04/27 07:07:18;;;;;;;11.30;6.07;;;18.70;99.90;;;;;;5095734;28;20620;-69
2022/04/27 07:09:46;;;;;;;12.97;6.43;;;18.70;99.90;;;;;;5095083;28;20174;-70
2022/04/27 07:12:14;;;;;;;12.93;7.67;;;18.60;99.90;;;;;;5095085;28;20566;-70
2022/04/27 07:14:42;;;;;;;11.33;7.73;;;18.70;99.90;;;;;;5094854;28;20725;-70
2022/04/27 07:17:09;;;;;;;10.90;6.87;;;18.70;99.90;;;;;;5095172;28;20663;-70
2022/04/27 07:19:37;;;;;;;11.10;6.13;;;18.60;99.90;;;;;;5095087;28;20666;-70
2022/04/27 07:22:05;;;;;;;15.20;8.43;;;18.60;99.90;;;;;;5094898;28;20171;-70
2022/04/27 07:24:34;;;;;;;14.03;7.60;;;18.60;99.90;;;;;;5094812;28;20181;-71
2022/04/27 07:27:02;;;;;;;11.97;6.40;;;18.50;99.90;;;;;;5094982;28;20236;-71
2022/04/27 07:29:30;;;;;;;16.53;7.50;;;18.50;99.90;;;;;;5094960;28;20286;-70
2022/04/27 07:32:00;;;;;;;14.57;8.67;;;18.40;99.90;;;;;;5093861;28;20588;-70
2022/04/27 07:34:30;;;;;;;16.97;8.53;;;18.40;99.90;;;;;;5094636;28;20174;-70
2022/04/27 07:36:58;;;;;;;13.37;7.47;;;18.40;99.90;;;;;;5094279;28;20636;-71
2022/04/27 07:39:26;;;;;;;19.57;8.47;;;18.30;99.90;;;;;;5094357;28;20249;-70
2022/04/27 07:41:53;;;;;;;15.63;8.50;;;18.40;99.90;;;;;;5093510;28;20202;-70
2022/04/27 07:44:21;;;;;;;10.73;7.67;;;18.30;99.90;;;;;;5093216;28;20700;-70
2022/04/27 07:46:50;;;;;;;14.43;8.87;;;18.30;99.90;;;;;;5094475;28;20174;-69
2022/04/27 07:49:21;;;;;;;17.13;8.17;;;18.30;99.90;;;;;;5094357;28;20175;-71
2022/04/27 07:51:53;;;;;;;9.70;6.53;;;18.20;99.90;;;;;;5094577;28;20183;-69
2022/04/27 07:54:21;;;;;;;11.40;7.63;;;18.20;99.90;;;;;;5094455;28;20178;-70
2022/04/27 07:56:48;;;;;;;10.10;6.40;;;18.10;99.90;;;;;;5093389;28;20210;-71
2022/04/27 07:59:16;;;;;;;13.40;8.50;;;18.10;99.90;;;;;;5090533;28;20673;-69
2022/04/27 08:01:44;;;;;;;10.70;7.53;;;18.10;99.90;;;;;;5092085;28;20194;-67
2022/04/27 08:04:12;;;;;;;14.57;8.90;;;18.10;99.90;;;;;;5092883;28;20179;-68
2022/04/27 08:06:39;;;;;;;17.93;9.60;;;18.10;99.90;;;;;;5092631;28;20190;-69
2022/04/27 08:09:07;;;;;;;16.87;8.97;;;18.00;99.90;;;;;;5092694;28;20210;-69
2022/04/27 08:11:35;;;;;;;14.40;8.37;;;18.00;99.90;;;;;;5092515;28;20183;-69
2022/04/27 08:14:02;;;;;;;17.03;9.40;;;18.00;99.90;;;;;;5092421;28;20648;-69
2022/04/27 08:16:30;;;;;;;15.80;8.93;;;18.00;99.90;;;;;;5092324;28;20695;-69
2022/04/27 08:18:58;;;;;;;10.30;7.93;;;18.00;99.90;;;;;;5092539;28;20191;-68
2022/04/27 08:21:27;;;;;;;16.13;9.53;;;17.90;99.90;;;;;;5092742;28;20182;-69
2022/04/27 08:23:55;;;;;;;16.93;8.97;;;18.00;99.90;;;;;;5091952;28;20191;-69
2022/04/27 08:26:22;;;;;;;16.67;9.50;;;18.00;99.90;;;;;;5092301;28;20236;-69
2022/04/27 08:28:50;;;;;;;16.70;10.30;;;18.00;99.90;;;;;;5092424;28;20279;-68
2022/04/27 08:31:18;;;;;;;16.13;9.37;;;17.90;99.90;;;;;;5091730;28;20186;-69
2022/04/27 08:33:46;;;;;;;21.27;11.03;;;17.90;99.90;;;;;;5092481;28;20171;-68
2022/04/27 08:36:14;;;;;;;20.90;12.10;;;17.90;99.90;;;;;;5092489;28;20171;-68
2022/04/27 08:38:41;;;;;;;15.83;10.23;;;17.90;99.90;;;;;;5092363;28;20183;-67
2022/04/27 08:41:09;;;;;;;23.43;12.27;;;17.90;99.90;;;;;;5092076;28;20504;-68
2022/04/27 08:43:37;;;;;;;22.37;12.83;;;17.90;99.90;;;;;;5092368;28;20182;-67
2022/04/27 08:46:06;;;;;;;20.47;12.93;;;17.80;99.90;;;;;;5091638;28;20313;-70
2022/04/27 08:48:34;;;;;;;19.97;13.60;;;17.80;99.90;;;;;;5091692;28;20175;-70
2022/04/27 08:51:03;;;;;;;19.77;11.97;;;17.80;99.90;;;;;;5091702;28;20187;-69
2022/04/27 08:53:30;;;;;;;18.97;12.77;;;17.80;99.90;;;;;;5092184;28;20236;-68
2022/04/27 08:55:58;;;;;;;18.23;11.70;;;17.80;99.90;;;;;;5091996;28;20195;-68
2022/04/27 08:58:26;;;;;;;21.07;12.03;;;17.80;99.90;;;;;;5091846;28;20183;-68
2022/04/27 09:00:54;;;;;;;19.57;12.20;;;17.80;99.90;;;;;;5092228;28;20172;-67
2022/04/27 09:03:30;;;;;;;14.60;9.67;;;17.80;99.90;;;;;;5090861;28;20179;-69
2022/04/27 09:06:16;;;;;;;20.73;11.33;;;17.80;99.90;;;;;;5091840;28;20716;-69
2022/04/27 09:08:49;;;;;;;18.77;12.20;;;17.80;99.90;;;;;;5092095;28;20171;-69
2022/04/27 09:11:26;;;;;;;20.37;11.47;;;17.90;99.90;;;;;;5092099;28;20182;-67
2022/04/27 09:13:59;;;;;;;14.53;8.97;;;17.80;99.90;;;;;;5090477;28;20186;-67
2022/04/27 09:22:12;;;;;;;19.27;10.83;;;17.90;99.90;;;;;;5092271;28;20251;-67
2022/04/27 09:24:52;;;;;;;20.33;11.47;;;18.00;99.90;;;;;;5091551;28;20179;-68
2022/04/27 09:27:27;;;;;;;21.37;11.27;;;17.90;99.90;;;;;;5091583;28;20693;-68
2022/04/27 09:30:04;;;;;;;20.17;12.13;;;17.90;99.90;;;;;;5090623;28;20243;-68
2022/04/27 09:32:33;;;;;;;20.27;12.33;;;17.90;99.90;;;;;;5091323;28;20183;-68
2022/04/27 09:35:03;;;;;;;23.13;13.50;;;17.90;99.90;;;;;;5091553;28;20210;-68
2022/04/27 09:37:43;;;;;;;17.27;11.90;;;17.90;99.90;;;;;;5091970;28;20210;-67
2022/04/27 09:40:13;;;;;;;18.47;12.63;;;17.90;99.90;;;;;;5091710;28;20677;-67
2022/04/27 09:42:59;;;;;;;17.07;11.67;;;17.90;99.90;;;;;;5090198;28;20225;-67
2022/04/27 09:45:27;;;;;;;22.00;13.83;;;17.90;99.90;;;;;;5091369;28;20194;-68
2022/04/27 09:48:06;;;;;;;19.77;13.13;;;17.80;99.90;;;;;;5091276;28;20590;-67
2022/04/27 09:51:12;;;;;;;18.93;12.90;;;17.80;99.90;;;;;;5089481;28;20183;-68
2022/04/27 09:53:42;;;;;;;28.03;15.80;;;17.80;99.90;;;;;;5041026;28;20191;-68
2022/04/27 09:56:14;;;;;;;27.87;14.60;;;17.90;99.90;;;;;;5089341;28;20736;-68
2022/04/27 09:58:45;;;;;;;23.03;14.13;;;18.00;99.90;;;;;;5091484;28;20240;-68
2022/04/27 10:01:16;;;;;;;22.77;13.03;;;18.00;99.90;;;;;;5091654;28;20247;-69
2022/04/27 10:03:48;;;;;;;21.60;13.57;;;18.00;99.90;;;;;;5094699;28;20198;-67
2022/04/27 10:06:16;;;;;;;21.27;14.50;;;18.00;99.90;;;;;;5094920;28;20179;-67
2022/04/27 10:08:47;;;;;;;23.97;13.70;;;18.00;99.90;;;;;;5094785;28;20178;-68
2022/04/27 10:11:15;;;;;;;23.10;15.03;;;18.00;99.90;;;;;;5094944;28;20190;-68
2022/04/27 10:13:43;;;;;;;24.60;14.77;;;17.90;99.90;;;;;;5095147;28;20255;-69
2022/04/27 10:16:11;;;;;;;24.50;15.83;;;18.00;99.90;;;;;;5094445;28;20688;-67
2022/04/27 10:18:38;;;;;;;22.77;13.70;;;18.00;99.90;;;;;;5094867;28;20601;-68
2022/04/27 10:21:10;;;;;;;21.53;12.97;;;17.90;99.90;;;;;;5094626;28;20183;-68
2022/04/27 10:23:46;;;;;;;21.73;13.67;;;18.00;99.90;;;;;;5094875;28;20527;-67
2022/04/27 10:26:18;;;;;;;24.13;13.73;;;18.00;99.90;;;;;;5057008;28;20187;-67
2022/04/27 10:28:52;;;;;;;24.23;13.30;;;18.00;99.90;;;;;;5074473;28;20662;-68
2022/04/27 10:31:41;;;;;;;23.00;13.07;;;18.00;99.90;;;;;;5074407;28;20172;-67
2022/04/27 10:34:22;;;;;;;24.30;14.67;;;18.00;99.90;;;;;;5077684;28;20224;-67
2022/04/27 10:36:51;;;;;;;23.17;14.87;;;18.00;99.90;;;;;;5094720;28;21031;-67
2022/04/27 10:39:21;;;;;;;23.13;14.57;;;18.00;99.90;;;;;;5094437;28;20207;-67
2022/04/27 10:42:04;;;;;;;23.50;13.83;;;18.10;99.90;;;;;;5094354;28;20701;-70
2022/04/27 10:44:58;;;;;;;23.93;14.40;;;18.10;99.90;;;;;;5095130;28;20247;-69
2022/04/27 10:47:34;;;;;;;24.07;13.87;;;18.10;99.90;;;;;;5092703;28;20675;-67
2022/04/27 10:50:19;;;;;;;21.63;14.20;;;18.10;99.90;;;;;;5095098;28;20597;-69
2022/04/27 10:52:52;;;;;;;24.30;14.90;;;18.10;99.90;;;;;;5095150;28;20189;-69
2022/04/27 10:55:35;;;;;;;22.30;14.67;;;18.10;99.90;;;;;;5095348;28;20175;-69
2022/04/27 10:58:30;;;;;;;26.83;14.90;;;18.10;99.90;;;;;;5095019;28;20183;-68
2022/04/27 11:01:01;;;;;;;22.67;14.33;;;18.10;99.90;;;;;;5095359;28;20680;-69
2022/04/27 11:03:36;;;;;;;30.70;16.73;;;18.10;99.90;;;;;;5095575;28;20186;-69
2022/04/27 11:06:05;;;;;;;23.73;15.90;;;18.10;99.90;;;;;;5095059;28;20586;-69
2022/04/27 11:09:09;;;;;;;27.33;17.03;;;18.10;99.90;;;;;;5094966;28;20704;-69
2022/04/27 11:11:56;;;;;;;26.00;16.57;;;18.10;99.90;;;;;;5095045;28;20228;-68
2022/04/27 11:14:35;;;;;;;25.27;15.37;;;18.10;99.90;;;;;;5094284;28;20180;-69
2022/04/27 11:17:10;;;;;;;30.83;17.23;;;18.10;99.90;;;;;;5094774;28;20594;-68
2022/04/27 11:19:42;;;;;;;26.17;17.50;;;18.10;99.90;;;;;;5094364;28;20217;-68
2022/04/27 11:22:15;;;;;;;34.43;18.57;;;18.10;99.90;;;;;;5093587;28;20168;-69
2022/04/27 11:24:47;;;;;;;36.17;18.90;;;18.10;99.90;;;;;;5094750;28;20172;-69
2022/04/27 11:27:23;;;;;;;24.63;15.90;;;18.00;99.90;;;;;;5094525;28;20570;-69
2022/04/27 11:29:55;;;;;;;28.50;16.83;;;18.00;99.90;;;;;;5094952;28;20179;-70
2022/04/27 11:32:23;;;;;;;25.23;15.50;;;18.00;99.90;;;;;;5094778;28;20218;-69
2022/04/27 11:34:51;;;;;;;34.37;18.83;;;17.90;99.90;;;;;;5094766;28;20171;-70
2022/04/27 11:37:21;;;;;;;33.27;19.80;;;17.90;99.90;;;;;;5094617;28;20175;-70
2022/04/27 11:39:49;;;;;;;30.40;17.17;;;17.90;99.90;;;;;;5094686;28;20207;-70
2022/04/27 11:42:18;;;;;;;28.97;16.57;;;17.90;99.90;;;;;;5093748;28;20180;-69
2022/04/27 11:44:53;;;;;;;24.83;16.30;;;17.90;99.90;;;;;;5094198;28;20183;-68
2022/04/27 11:47:31;;;;;;;28.03;17.63;;;17.90;99.90;;;;;;5094276;28;20179;-68
2022/04/27 11:50:01;;;;;;;23.80;16.53;;;17.90;99.90;;;;;;5094396;28;20675;-69
2022/04/27 11:52:36;;;;;;;28.97;19.03;;;17.90;99.90;;;;;;5093391;28;20167;-70
2022/04/27 11:55:15;;;;;;;27.37;17.30;;;17.90;99.90;;;;;;5094010;28;20175;-68
2022/04/27 11:57:44;;;;;;;27.63;18.50;;;17.90;99.90;;;;;;5092295;28;20187;-68
2022/04/27 12:00:20;;;;;;;32.70;19.67;;;18.00;99.90;;;;;;5093612;28;20258;-69
2022/04/27 12:02:48;;;;;;;29.67;19.30;;;17.90;99.90;;;;;;5093510;28;20167;-68
2022/04/27 12:05:17;;;;;;;30.80;18.70;;;17.90;99.90;;;;;;5093604;28;20540;-71
2022/04/27 12:07:53;;;;;;;24.23;16.73;;;17.90;99.90;;;;;;5073601;28;20613;-68
2022/04/27 12:10:21;;;;;;;28.03;17.40;;;17.90;99.90;;;;;;5083552;28;20175;-68
2022/04/27 12:12:49;;;;;;;28.23;19.00;;;17.90;99.90;;;;;;5093059;28;20202;-69
2022/04/27 12:15:22;;;;;;;28.23;17.17;;;17.90;99.90;;;;;;5093027;28;20222;-68
2022/04/27 12:17:51;;;;;;;30.00;16.37;;;17.90;99.90;;;;;;5093106;28;20592;-69
2022/04/27 12:20:31;;;;;;;25.40;16.97;;;17.90;99.90;;;;;;5092998;28;20221;-67
2022/04/27 12:23:01;;;;;;;28.53;18.00;;;17.90;99.90;;;;;;5092133;28;20171;-69
2022/04/27 12:25:49;;;;;;;32.23;17.70;;;17.90;99.90;;;;;;5093112;28;20559;-68
2022/04/27 12:28:18;;;;;;;30.47;17.37;;;17.90;99.90;;;;;;5090476;28;20240;-69
2022/04/27 12:30:53;;;;;;;31.23;17.43;;;17.90;99.90;;;;;;5093485;28;20207;-70
2022/04/27 12:33:29;;;;;;;34.63;18.77;;;17.90;99.90;;;;;;5093466;28;20175;-68
2022/04/27 12:39:08;;;;;;;26.37;16.13;;;17.80;99.90;;;;;;5092012;28;20186;-69
2022/04/27 12:41:41;;;;;;;27.70;15.40;;;17.80;99.90;;;;;;5090305;28;20175;-68
2022/04/27 12:44:19;;;;;;;30.17;17.10;;;17.80;99.90;;;;;;5093109;28;20187;-69
2022/04/27 12:47:02;;;;;;;32.90;18.77;;;17.80;99.90;;;;;;5093140;28;20171;-69
2022/04/27 12:49:30;;;;;;;35.50;18.27;;;17.80;99.90;;;;;;5092999;28;20232;-68
2022/04/27 12:52:26;;;;;;;40.37;19.57;;;17.80;99.90;;;;;;5091714;28;20197;-68
2022/04/27 12:55:08;;;;;;;32.13;17.73;;;17.80;99.90;;;;;;5092975;28;20202;-69
2022/04/27 12:57:53;;;;;;;33.17;18.03;;;17.90;99.90;;;;;;5093389;28;20236;-69
2022/04/27 13:00:26;;;;;;;36.57;17.63;;;17.90;99.90;;;;;;5092911;28;20249;-68
2022/04/27 13:02:53;;;;;;;37.33;17.60;;;17.90;99.90;;;;;;5091807;28;20214;-69
2022/04/27 13:05:21;;;;;;;34.27;18.33;;;17.90;99.90;;;;;;5093217;28;20186;-70
2022/04/27 13:07:49;;;;;;;33.90;19.60;;;17.90;99.90;;;;;;5093013;28;20217;-69
2022/04/27 13:13:19;;;;;;;39.10;20.23;;;17.90;99.90;;;;;;5055892;28;20287;-69
2022/04/27 13:15:47;;;;;;;34.20;19.43;;;17.90;99.90;;;;;;5093166;28;20253;-68